createdAt,value
2022-12-24T00:01:33.596Z,98154.91
2022-12-24T00:04:01.424Z,98156.38
2022-12-24T00:06:29.403Z,98166.44
2022-12-24T00:08:59.573Z,98162.84
2022-12-24T00:11:27.492Z,98157.44
2022-12-24T00:13:55.412Z,98158.13
2022-12-24T00:16:24.616Z,98147.97
2022-12-24T00:18:54.910Z,98141.97
2022-12-24T00:21:22.883Z,98153.91
2022-12-24T00:23:50.800Z,98152.25
2022-12-24T00:26:18.739Z,98159.72
2022-12-24T00:29:26.487Z,98164.97
2022-12-24T00:32:54.462Z,98155.53
2022-12-24T00:35:32.692Z,98154.59
2022-12-24T00:38:00.621Z,98155.09
2022-12-24T00:40:28.486Z,98163.38
2022-12-24T00:42:56.313Z,98168.66
2022-12-24T00:45:24.543Z,98173.38
2022-12-24T00:47:53.809Z,98167.91
2022-12-24T00:50:21.932Z,98176.28
2022-12-24T00:52:49.825Z,98174.31
2022-12-24T00:55:17.844Z,98179.34
2022-12-24T00:57:45.974Z,98187.63
2022-12-24T01:00:16.019Z,98189.53
2022-12-24T01:02:44.657Z,98201.41
2022-12-24T01:05:13.206Z,98195.94
2022-12-24T01:07:44.568Z,98205.09
2022-12-24T01:10:14.235Z,98212.97
2022-12-24T01:12:44.674Z,98228.72
2022-12-24T01:15:14.561Z,98230.34
2022-12-24T01:17:42.617Z,98231.56
2022-12-24T01:20:17.563Z,98238.34
2022-12-24T01:22:46.178Z,98251.59
2022-12-24T01:25:14.178Z,98253.22
2022-12-24T01:27:45.012Z,98265.63
2022-12-24T01:30:15.918Z,98270.84
2022-12-24T01:32:44.067Z,98272.53
2022-12-24T01:35:12.611Z,98283.28
2022-12-24T01:37:43.629Z,98299.50
2022-12-24T01:40:34.017Z,98294.56
2022-12-24T01:43:19.198Z,98286.59
2022-12-24T01:45:49.673Z,98290.00
2022-12-24T01:48:24.249Z,98300.78
2022-12-24T01:50:58.837Z,98310.66
2022-12-24T01:53:28.478Z,98317.25
2022-12-24T01:55:56.963Z,98322.00
2022-12-24T01:58:27.496Z,98328.25
2022-12-24T02:00:56.056Z,98344.38
2022-12-24T02:03:26.617Z,98349.31
2022-12-24T02:05:58.382Z,98359.28
2022-12-24T02:08:39.793Z,98362.47
2022-12-24T02:11:15.872Z,98355.72
2022-12-24T02:13:47.305Z,98349.84
2022-12-24T02:16:30.731Z,98354.66
2022-12-24T02:19:11.513Z,98328.34
2022-12-24T02:21:49.663Z,98325.25
2022-12-24T02:25:04.514Z,98339.66
2022-12-24T02:27:43.421Z,98352.03
2022-12-24T02:30:19.711Z,98361.03
2022-12-24T02:33:01.972Z,98362.25
2022-12-24T02:35:38.496Z,98370.69
2022-12-24T02:38:14.989Z,98353.97
2022-12-24T02:40:47.903Z,98352.41
2022-12-24T02:43:21.656Z,98338.19
2022-12-24T02:45:59.525Z,98365.47
2022-12-24T02:48:31.707Z,98376.22
2022-12-24T02:51:03.828Z,98382.69
2022-12-24T02:53:35.421Z,98392.06
2022-12-24T02:56:25.012Z,98385.31
2022-12-24T02:59:13.375Z,98391.00
2022-12-24T03:01:52.426Z,98401.81
2022-12-24T03:04:39.427Z,98394.84
2022-12-24T03:07:16.447Z,98393.97
2022-12-24T03:10:00.702Z,98396.16
2022-12-24T03:12:33.315Z,98405.31
2022-12-24T03:15:02.434Z,98401.94
2022-12-24T03:17:35.976Z,98406.97
2022-12-24T03:20:05.520Z,98405.78
2022-12-24T03:22:35.432Z,98400.25
2022-12-24T03:25:04.293Z,98426.47
2022-12-24T03:27:34.617Z,98425.47
2022-12-24T03:30:04.450Z,98418.63
2022-12-24T03:32:34.013Z,98407.94
2022-12-24T03:35:01.964Z,98404.81
2022-12-24T03:37:29.881Z,98409.03
2022-12-24T03:39:59.822Z,98414.88
2022-12-24T03:42:27.749Z,98417.38
2022-12-24T03:44:55.667Z,98434.59
2022-12-24T03:47:25.571Z,98426.94
2022-12-24T03:49:54.805Z,98418.25
2022-12-24T03:52:22.769Z,98428.47
2022-12-24T03:54:50.644Z,98427.03
2022-12-24T03:57:18.460Z,98416.69
2022-12-24T03:59:46.286Z,98409.09
2022-12-24T04:02:14.343Z,98422.94
2022-12-24T04:04:42.527Z,98430.25
2022-12-24T04:07:11.897Z,98428.84
2022-12-24T04:09:40.619Z,98419.22
2022-12-24T04:12:09.016Z,98435.53
2022-12-24T04:14:36.893Z,98446.13
2022-12-24T04:17:07.204Z,98441.69
2022-12-24T04:19:37.239Z,98435.22
2022-12-24T04:22:05.142Z,98440.38
2022-12-24T04:24:36.246Z,98444.50
2022-12-24T04:27:06.588Z,98446.00
2022-12-24T04:29:34.474Z,98437.75
2022-12-24T04:32:02.715Z,98443.75
2022-12-24T04:34:30.653Z,98444.22
2022-12-24T04:36:58.686Z,98438.69
2022-12-24T04:39:26.600Z,98445.69
2022-12-24T04:41:55.780Z,98444.72
2022-12-24T04:44:23.665Z,98445.66
2022-12-24T04:46:51.496Z,98459.13
2022-12-24T04:49:19.411Z,98458.19
2022-12-24T04:51:47.185Z,98449.88
2022-12-24T04:54:14.969Z,98447.72
2022-12-24T04:56:42.854Z,98453.13
2022-12-24T04:59:12.257Z,98476.94
2022-12-24T05:01:40.141Z,98465.13
2022-12-24T05:04:08.759Z,98459.13
2022-12-24T05:06:36.597Z,98450.25
2022-12-24T05:09:04.685Z,98450.97
2022-12-24T05:11:32.850Z,98458.88
2022-12-24T05:14:00.793Z,98448.31
2022-12-24T05:16:30.235Z,98451.91
2022-12-24T05:18:58.237Z,98463.69
2022-12-24T05:21:26.520Z,98475.81
2022-12-24T05:24:12.310Z,98449.50
2022-12-24T05:26:43.547Z,98448.66
2022-12-24T05:29:13.164Z,98472.19
2022-12-24T05:31:43.899Z,98463.41
2022-12-24T05:34:12.330Z,98465.00
2022-12-24T05:36:40.608Z,98472.69
2022-12-24T05:39:15.187Z,98459.78
2022-12-24T05:41:43.861Z,98459.56
2022-12-24T05:44:11.793Z,98461.72
2022-12-24T05:46:43.753Z,98461.47
2022-12-24T05:49:11.679Z,98461.94
2022-12-24T05:51:40.306Z,98453.63
2022-12-24T05:54:08.689Z,98460.72
2022-12-24T05:56:36.619Z,98467.63
2022-12-24T05:59:04.766Z,98483.47
2022-12-24T06:01:32.692Z,98479.84
2022-12-24T06:04:03.578Z,98481.31
2022-12-24T06:06:31.646Z,98472.81
2022-12-24T06:08:59.548Z,98474.34
2022-12-24T06:11:29.549Z,98488.81
2022-12-24T06:13:58.267Z,98492.59
2022-12-24T06:16:27.101Z,98496.06
2022-12-24T06:18:55.525Z,98480.91
2022-12-24T06:21:24.841Z,98496.78
2022-12-24T06:23:53.175Z,98502.69
2022-12-24T06:26:23.431Z,98503.91
2022-12-24T06:28:52.391Z,98498.03
2022-12-24T06:31:23.234Z,98505.09
2022-12-24T06:33:51.594Z,98510.59
2022-12-24T06:36:21.786Z,98515.63
2022-12-24T06:38:52.096Z,98520.09
2022-12-24T06:41:20.151Z,98522.41
2022-12-24T06:43:50.162Z,98517.53
2022-12-24T06:46:19.048Z,98529.94
2022-12-24T06:48:47.687Z,98539.84
2022-12-24T06:51:19.882Z,98544.47
2022-12-24T06:53:48.113Z,98546.53
2022-12-24T06:56:18.044Z,98552.72
2022-12-24T06:58:45.932Z,98551.00
2022-12-24T07:01:16.679Z,98556.69
2022-12-24T07:03:45.380Z,98555.53
2022-12-24T07:06:18.686Z,98556.91
2022-12-24T07:08:46.735Z,98556.28
2022-12-24T07:11:14.597Z,98549.16
2022-12-24T07:13:43.820Z,98566.94
2022-12-24T07:16:11.878Z,98574.66
2022-12-24T07:18:44.016Z,98567.47
2022-12-24T07:21:12.268Z,98576.28
2022-12-24T07:24:06.223Z,98573.94
2022-12-24T07:26:34.700Z,98576.09
2022-12-24T07:29:03.884Z,98591.25
2022-12-24T07:31:31.825Z,98594.84
2022-12-24T07:33:59.935Z,98599.41
2022-12-24T07:36:28.267Z,98603.50
2022-12-24T07:38:58.632Z,98598.00
2022-12-24T07:41:26.529Z,98599.91
2022-12-24T07:43:54.510Z,98597.75
2022-12-24T07:46:26.362Z,98603.97
2022-12-24T07:48:54.393Z,98604.69
2022-12-24T07:51:22.155Z,98607.53
2022-12-24T07:53:50.061Z,98603.69
2022-12-24T07:56:18.397Z,98617.03
2022-12-24T07:58:46.392Z,98603.06
2022-12-24T08:01:22.320Z,98607.38
2022-12-24T08:03:55.451Z,98607.38
2022-12-24T08:06:23.625Z,98608.56
2022-12-24T08:08:51.646Z,98611.94
2022-12-24T08:11:19.538Z,98605.81
2022-12-24T08:13:47.397Z,98610.03
2022-12-24T08:16:15.390Z,98622.19
2022-12-24T08:18:43.361Z,98617.09
2022-12-24T08:21:12.629Z,98624.34
2022-12-24T08:23:40.602Z,98621.09
2022-12-24T08:26:09.375Z,98635.03
2022-12-24T08:28:37.475Z,98632.94
2022-12-24T08:31:06.235Z,98644.47
2022-12-24T08:33:36.399Z,98642.31
2022-12-24T08:36:04.736Z,98641.50
2022-12-24T08:38:33.932Z,98647.09
2022-12-24T08:41:01.842Z,98645.34
2022-12-24T08:43:32.386Z,98654.19
2022-12-24T08:46:04.581Z,98655.03
2022-12-24T08:48:32.687Z,98652.03
2022-12-24T08:51:00.672Z,98654.53
2022-12-24T08:53:28.477Z,98657.72
2022-12-24T08:56:04.096Z,98669.97
2022-12-24T08:58:33.392Z,98666.53
2022-12-24T09:01:02.105Z,98670.38
2022-12-24T09:03:30.735Z,98665.44
2022-12-24T09:05:58.633Z,98663.78
2022-12-24T09:08:26.405Z,98668.59
2022-12-24T09:10:54.441Z,98676.31
2022-12-24T09:13:23.807Z,98679.22
2022-12-24T09:15:55.429Z,98684.19
2022-12-24T09:18:23.554Z,98686.53
2022-12-24T09:20:57.070Z,98694.88
2022-12-24T09:23:25.427Z,98697.34
2022-12-24T09:25:53.279Z,98695.44
2022-12-24T09:28:22.927Z,98696.50
2022-12-24T09:30:58.948Z,98694.06
2022-12-24T09:33:27.340Z,98704.44
2022-12-24T09:35:55.206Z,98710.28
2022-12-24T09:38:25.562Z,98702.25
2022-12-24T09:40:55.895Z,98713.19
2022-12-24T09:43:32.599Z,98705.63
2022-12-24T09:46:10.169Z,98707.66
2022-12-24T09:48:43.523Z,98703.56
2022-12-24T09:51:13.615Z,98701.03
2022-12-24T09:53:47.029Z,98698.72
2022-12-24T09:56:19.329Z,98704.88
2022-12-24T09:58:51.999Z,98698.44
2022-12-24T10:01:22.167Z,98702.94
2022-12-24T10:03:50.277Z,98705.75
2022-12-24T10:06:27.050Z,98701.50
2022-12-24T10:09:12.140Z,98696.00
2022-12-24T10:11:48.130Z,98698.44
2022-12-24T10:14:28.349Z,98698.72
2022-12-24T10:17:11.831Z,98699.59
2022-12-24T10:19:51.583Z,98703.31
2022-12-24T10:22:27.482Z,98707.38
2022-12-24T10:25:04.841Z,98704.47
2022-12-24T10:27:39.857Z,98708.72
2022-12-24T10:30:17.416Z,98705.94
2022-12-24T10:32:48.375Z,98716.31
2022-12-24T10:35:24.539Z,98724.88
2022-12-24T10:37:53.744Z,98723.75
2022-12-24T10:40:33.454Z,98728.16
2022-12-24T10:43:01.518Z,98721.78
2022-12-24T10:45:38.681Z,98715.97
2022-12-24T10:48:12.756Z,98722.13
2022-12-24T10:50:44.133Z,98732.13
2022-12-24T10:53:18.973Z,98725.13
2022-12-24T10:55:49.702Z,98738.16
2022-12-24T10:58:20.650Z,98732.63
2022-12-24T11:00:53.963Z,98736.75
2022-12-24T11:03:31.863Z,98734.56
2022-12-24T11:06:06.173Z,98722.44
2022-12-24T11:08:34.940Z,98719.88
2022-12-24T11:11:08.357Z,98718.91
2022-12-24T11:13:39.899Z,98718.53
2022-12-24T11:16:18.937Z,98725.06
2022-12-24T11:18:51.710Z,98721.38
2022-12-24T11:21:25.749Z,98731.53
2022-12-24T11:23:56.972Z,98720.06
2022-12-24T11:26:27.241Z,98720.75
2022-12-24T11:29:13.464Z,98734.16
2022-12-24T11:31:43.455Z,98725.41
2022-12-24T11:34:28.165Z,98721.25
2022-12-24T11:37:14.564Z,98731.13
2022-12-24T11:39:48.122Z,98728.72
2022-12-24T11:42:32.314Z,98725.97
2022-12-24T11:45:03.083Z,98722.84
2022-12-24T11:47:37.500Z,98715.38
2022-12-24T11:50:24.029Z,98718.88
2022-12-24T11:52:56.554Z,98729.38
2022-12-24T11:55:36.948Z,98732.47
2022-12-24T11:58:17.970Z,98731.50
2022-12-24T12:00:48.026Z,98724.53
2022-12-24T12:03:30.185Z,98722.22
2022-12-24T12:06:00.902Z,98721.88
2022-12-24T12:08:30.163Z,98716.56
2022-12-24T12:11:00.811Z,98715.59
2022-12-24T12:13:34.034Z,98711.53
2022-12-24T12:16:12.251Z,98706.22
2022-12-24T12:18:46.504Z,98705.59
2022-12-24T12:21:18.232Z,98719.44
2022-12-24T12:23:50.655Z,98717.97
2022-12-24T12:26:24.934Z,98718.22
2022-12-24T12:28:59.059Z,98707.63
2022-12-24T12:31:31.437Z,98720.97
2022-12-24T12:34:05.924Z,98727.97
2022-12-24T12:36:40.410Z,98728.84
2022-12-24T12:39:10.857Z,98729.22
2022-12-24T12:41:55.640Z,98734.41
2022-12-24T12:44:41.326Z,98735.56
2022-12-24T12:47:32.738Z,98747.72
2022-12-24T12:50:11.331Z,98743.00
2022-12-24T12:53:03.258Z,98747.81
2022-12-24T12:55:42.696Z,98743.00
2022-12-24T12:58:18.580Z,98737.44
2022-12-24T13:00:50.550Z,98736.84
2022-12-24T13:03:45.393Z,98734.16
2022-12-24T13:06:27.858Z,98737.19
2022-12-24T13:09:22.877Z,98730.66
2022-12-24T13:12:05.103Z,98725.72
2022-12-24T13:14:46.546Z,98714.53
2022-12-24T13:17:34.016Z,98711.75
2022-12-24T13:20:25.467Z,98727.69
2022-12-24T13:23:00.126Z,98721.59
2022-12-24T13:25:36.519Z,98720.16
2022-12-24T13:28:33.617Z,98720.34
2022-12-24T13:31:31.613Z,98730.63
2022-12-24T13:34:01.519Z,98730.63
2022-12-24T13:37:07.778Z,98730.94
2022-12-24T13:40:14.909Z,98732.59
2022-12-24T13:43:07.042Z,98724.69
2022-12-24T13:45:46.617Z,98724.63
2022-12-24T13:48:28.881Z,98725.63
2022-12-24T13:50:59.984Z,98733.44
2022-12-24T13:53:32.417Z,98748.56
2022-12-24T13:56:07.785Z,98739.97
2022-12-24T13:58:37.435Z,98730.16
2022-12-24T14:01:09.791Z,98727.03
2022-12-24T14:03:43.323Z,98725.97
2022-12-24T14:06:13.978Z,98725.00
2022-12-24T14:08:44.823Z,98723.06
2022-12-24T14:11:17.250Z,98721.78
2022-12-24T14:14:09.769Z,98721.25
2022-12-24T14:16:45.718Z,98719.59
2022-12-24T14:19:16.207Z,98716.25
2022-12-24T14:21:48.957Z,98719.38
2022-12-24T14:24:19.220Z,98717.94
2022-12-24T14:26:50.982Z,98699.94
2022-12-24T14:29:26.271Z,98690.59
2022-12-24T14:31:55.212Z,98699.59
2022-12-24T14:34:23.740Z,98712.81
2022-12-24T14:36:54.656Z,98708.66
2022-12-24T14:39:27.346Z,98712.34
2022-12-24T14:42:10.262Z,98708.78
2022-12-24T14:44:47.249Z,98697.97
2022-12-24T14:47:28.319Z,98692.25
2022-12-24T14:50:20.035Z,98709.13
2022-12-24T14:53:09.323Z,98721.28
2022-12-24T14:55:45.287Z,98730.16
2022-12-24T14:58:32.244Z,98735.28
2022-12-24T15:01:04.372Z,98723.66
2022-12-24T15:03:33.703Z,98733.00
2022-12-24T15:06:05.154Z,98739.19
2022-12-24T15:08:37.725Z,98740.72
2022-12-24T15:11:08.197Z,98738.84
2022-12-24T15:13:40.077Z,98732.25
2022-12-24T15:16:11.061Z,98731.81
2022-12-24T15:18:43.103Z,98727.66
2022-12-24T15:21:19.247Z,98730.38
2022-12-24T15:23:49.692Z,98725.47
2022-12-24T15:26:23.750Z,98728.25
2022-12-24T15:29:01.911Z,98732.47
2022-12-24T15:31:31.344Z,98738.31
2022-12-24T15:34:00.360Z,98749.72
2022-12-24T15:36:32.393Z,98751.06
2022-12-24T15:39:02.860Z,98763.34
2022-12-24T15:41:38.169Z,98767.09
2022-12-24T15:44:07.814Z,98766.84
2022-12-24T15:46:35.931Z,98770.97
2022-12-24T15:49:04.512Z,98768.25
2022-12-24T15:51:40.227Z,98775.59
2022-12-24T15:54:14.825Z,98780.00
2022-12-24T15:56:45.441Z,98775.59
2022-12-24T15:59:27.066Z,98780.06
2022-12-24T16:01:55.009Z,98783.66
2022-12-24T16:04:25.421Z,98773.28
2022-12-24T16:06:55.640Z,98776.56
2022-12-24T16:09:43.989Z,98778.31
2022-12-24T16:12:18.463Z,98778.25
2022-12-24T16:14:54.558Z,98772.31
2022-12-24T16:17:25.263Z,98773.66
2022-12-24T16:19:56.855Z,98772.56
2022-12-24T16:22:35.391Z,98771.31
2022-12-24T16:25:22.974Z,98778.13
2022-12-24T16:27:51.048Z,98781.66
2022-12-24T16:30:20.914Z,98785.34
2022-12-24T16:32:50.982Z,98789.88
2022-12-24T16:35:28.200Z,98788.03
2022-12-24T16:37:56.662Z,98782.25
2022-12-24T16:40:27.613Z,98782.88
2022-12-24T16:43:14.385Z,98792.38
2022-12-24T16:45:45.420Z,98797.69
2022-12-24T16:48:20.652Z,98795.03
2022-12-24T16:50:49.430Z,98808.91
2022-12-24T16:53:18.141Z,98807.97
2022-12-24T16:55:47.527Z,98819.25
2022-12-24T16:58:17.756Z,98825.38
2022-12-24T17:00:47.573Z,98810.94
2022-12-24T17:03:15.772Z,98814.88
2022-12-24T17:05:46.421Z,98815.31
2022-12-24T17:08:15.049Z,98813.81
2022-12-24T17:10:51.741Z,98818.66
2022-12-24T17:13:22.018Z,98819.09
2022-12-24T17:15:51.426Z,98818.63
2022-12-24T17:18:19.659Z,98817.03
2022-12-24T17:20:57.850Z,98819.47
2022-12-24T17:23:25.896Z,98811.75
2022-12-24T17:25:53.870Z,98824.88
2022-12-24T17:28:23.016Z,98824.53
2022-12-24T17:30:52.445Z,98837.66
2022-12-24T17:33:20.262Z,98837.03
2022-12-24T17:35:49.239Z,98833.88
2022-12-24T17:38:17.110Z,98836.69
2022-12-24T17:40:45.284Z,98834.69
2022-12-24T17:43:13.220Z,98841.88
2022-12-24T17:45:42.448Z,98845.38
2022-12-24T17:48:11.707Z,98848.03
2022-12-24T17:50:40.630Z,98849.31
2022-12-24T17:53:09.013Z,98843.75
2022-12-24T17:55:41.496Z,98849.06
2022-12-24T17:58:09.631Z,98849.06
2022-12-24T18:00:38.428Z,98840.31
2022-12-24T18:03:06.379Z,98847.72
2022-12-24T18:05:36.637Z,98849.94
2022-12-24T18:08:05.062Z,98853.31
2022-12-24T18:10:33.301Z,98853.09
2022-12-24T18:13:01.281Z,98854.16
2022-12-24T18:15:34.867Z,98837.78
2022-12-24T18:18:03.532Z,98844.06
2022-12-24T18:20:32.110Z,98831.81
2022-12-24T18:23:01.397Z,98828.53
2022-12-24T18:25:29.638Z,98831.34
2022-12-24T18:27:57.579Z,98834.09
2022-12-24T18:30:27.855Z,98833.25
2022-12-24T18:32:56.195Z,98834.31
2022-12-24T18:35:24.891Z,98835.53
2022-12-24T18:37:53.452Z,98833.25
2022-12-24T18:40:22.966Z,98831.00
2022-12-24T18:42:50.871Z,98829.19
2022-12-24T18:45:18.798Z,98832.47
2022-12-24T18:47:46.634Z,98842.09
2022-12-24T18:50:14.533Z,98840.81
2022-12-24T18:52:42.361Z,98831.53
2022-12-24T18:55:11.190Z,98828.81
2022-12-24T18:57:40.398Z,98832.50
2022-12-24T19:00:09.775Z,98829.78
2022-12-24T19:02:37.772Z,98827.88
2022-12-24T19:05:06.333Z,98828.72
2022-12-24T19:07:34.325Z,98836.44
2022-12-24T19:10:02.390Z,98843.94
2022-12-24T19:12:30.274Z,98851.44
2022-12-24T19:14:59.616Z,98848.28
2022-12-24T19:17:27.537Z,98837.81
2022-12-24T19:19:55.459Z,98835.38
2022-12-24T19:22:23.308Z,98827.78
2022-12-24T19:24:51.946Z,98835.91
2022-12-24T19:27:19.739Z,98838.22
2022-12-24T19:29:47.668Z,98847.41
2022-12-24T19:32:17.009Z,98838.94
2022-12-24T19:34:44.857Z,98833.56
2022-12-24T19:37:12.785Z,98833.69
2022-12-24T19:39:40.703Z,98839.50
2022-12-24T19:42:08.611Z,98826.47
2022-12-24T19:44:36.474Z,98830.25
2022-12-24T19:47:04.342Z,98831.00
2022-12-24T19:49:33.517Z,98833.31
2022-12-24T19:52:01.616Z,98851.19
2022-12-24T19:54:31.710Z,98850.25
2022-12-24T19:56:59.621Z,98853.91
2022-12-24T19:59:27.524Z,98867.34
2022-12-24T20:01:56.194Z,98875.19
2022-12-24T20:04:24.221Z,98873.38
2022-12-24T20:06:59.658Z,98882.78
2022-12-24T20:09:28.954Z,98889.47
2022-12-24T20:11:59.213Z,98889.13
2022-12-24T20:14:29.433Z,98890.06
2022-12-24T20:16:57.495Z,98891.53
2022-12-24T20:19:25.395Z,98900.00
2022-12-24T20:21:56.664Z,98900.84
2022-12-24T20:24:27.720Z,98898.72
2022-12-24T20:26:55.595Z,98900.41
2022-12-24T20:29:25.949Z,98894.50
2022-12-24T20:31:53.855Z,98895.34
2022-12-24T20:34:21.790Z,98894.09
2022-12-24T20:36:49.724Z,98897.25
2022-12-24T20:39:18.917Z,98892.69
2022-12-24T20:41:46.798Z,98897.25
2022-12-24T20:44:14.705Z,98889.00
2022-12-24T20:46:42.700Z,98895.13
2022-12-24T20:49:12.323Z,98894.09
2022-12-24T20:51:40.622Z,98895.78
2022-12-24T20:54:08.686Z,98904.00
2022-12-24T20:56:37.934Z,98899.78
2022-12-24T20:59:05.762Z,98901.06
2022-12-24T21:01:34.395Z,98904.88
2022-12-24T21:04:04.840Z,98900.03
2022-12-24T21:06:33.637Z,98906.34
2022-12-24T21:09:01.966Z,98888.56
2022-12-24T21:11:47.175Z,98891.53
2022-12-24T21:14:18.178Z,98891.19
2022-12-24T21:16:46.787Z,98892.69
2022-12-24T21:19:18.047Z,98885.56
2022-12-24T21:21:46.957Z,98900.41
2022-12-24T21:24:15.276Z,98906.13
2022-12-24T21:26:43.293Z,98901.78
2022-12-24T21:29:11.547Z,98910.56
2022-12-24T21:31:40.799Z,98915.41
2022-12-24T21:34:09.347Z,98922.59
2022-12-24T21:36:37.208Z,98926.16
2022-12-24T21:39:06.004Z,98930.38
2022-12-24T21:41:33.803Z,98928.00
2022-12-24T21:44:02.675Z,98937.59
2022-12-24T21:46:30.737Z,98942.41
2022-12-24T21:49:17.397Z,98944.63
2022-12-24T21:51:48.703Z,98949.72
2022-12-24T21:54:28.589Z,98946.59
2022-12-24T21:57:16.581Z,98949.88
2022-12-24T21:59:44.700Z,98954.97
2022-12-24T22:02:13.992Z,98944.72
2022-12-24T22:04:44.180Z,98944.50
2022-12-24T22:07:38.357Z,98939.75
2022-12-24T22:10:25.112Z,98941.31
2022-12-24T22:12:53.504Z,98938.28
2022-12-24T22:15:22.414Z,98941.03
2022-12-24T22:17:50.291Z,98922.53
2022-12-24T22:20:19.862Z,98926.88
2022-12-24T22:22:48.766Z,98909.03
2022-12-24T22:25:16.976Z,98899.75
2022-12-24T22:27:44.933Z,98903.97
2022-12-24T22:30:13.668Z,98895.59
2022-12-24T22:32:41.607Z,98887.16
2022-12-24T22:35:10.010Z,98875.94
2022-12-24T22:37:39.333Z,98887.44
2022-12-24T22:40:08.415Z,98874.22
2022-12-24T22:42:40.968Z,98865.31
2022-12-24T22:45:12.601Z,98875.78
2022-12-24T22:47:43.584Z,98869.78
2022-12-24T22:50:12.562Z,98859.81
2022-12-24T22:52:41.927Z,98875.78
2022-12-24T22:55:10.828Z,98872.56
2022-12-24T22:57:41.270Z,98871.59
2022-12-24T23:00:14.122Z,98881.44
2022-12-24T23:02:42.238Z,98885.34
2022-12-24T23:05:14.324Z,98875.31
2022-12-24T23:07:43.673Z,98872.34
2022-12-24T23:10:11.773Z,98877.53
2022-12-24T23:12:56.231Z,98880.19
2022-12-24T23:15:24.295Z,98874.91
2022-12-24T23:17:52.137Z,98881.44
2022-12-24T23:20:20.054Z,98881.41
2022-12-24T23:22:51.418Z,98879.75
2022-12-24T23:25:19.386Z,98875.97
2022-12-24T23:27:47.358Z,98883.50
2022-12-24T23:30:17.778Z,98870.44
2022-12-24T23:32:45.724Z,98874.47
2022-12-24T23:35:13.618Z,98873.19
2022-12-24T23:37:41.489Z,98870.13
2022-12-24T23:40:11.982Z,98876.78
2022-12-24T23:42:39.847Z,98874.47
2022-12-24T23:45:10.973Z,98874.06
2022-12-24T23:47:38.899Z,98861.28
2022-12-24T23:50:08.313Z,98859.59
2022-12-24T23:52:36.320Z,98858.41
2022-12-24T23:55:04.581Z,98859.34
2022-12-24T23:57:33.825Z,98863.19
